sensor_id;sensor_type;location;lat;lon;timestamp;P1;durP1;ratioP1;P2;durP2;ratioP2
78875;SDS011;68253;52.506;5.486;2024-02-15T00:01:01;13.43;;;2.30;;
78875;SDS011;68253;52.506;5.486;2024-02-15T00:03:30;13.25;;;2.83;;
78875;SDS011;68253;52.506;5.486;2024-02-15T00:05:57;13.38;;;2.50;;
78875;SDS011;68253;52.506;5.486;2024-02-15T00:08:23;14.00;;;3.22;;
78875;SDS011;68253;52.506;5.486;2024-02-15T00:10:50;16.52;;;2.75;;
78875;SDS011;68253;52.506;5.486;2024-02-15T00:13:16;10.35;;;2.40;;
78875;SDS011;68253;52.506;5.486;2024-02-15T00:15:42;12.43;;;2.45;;
78875;SDS011;68253;52.506;5.486;2024-02-15T00:18:08;11.82;;;2.53;;
78875;SDS011;68253;52.506;5.486;2024-02-15T00:20:34;10.23;;;2.38;;
78875;SDS011;68253;52.506;5.486;2024-02-15T00:23:00;10.15;;;2.30;;
78875;SDS011;68253;52.506;5.486;2024-02-15T00:25:27;12.60;;;2.45;;
78875;SDS011;68253;52.506;5.486;2024-02-15T00:27:53;11.60;;;2.53;;
78875;SDS011;68253;52.506;5.486;2024-02-15T00:30:19;12.32;;;2.75;;
78875;SDS011;68253;52.506;5.486;2024-02-15T00:32:45;12.85;;;2.40;;
78875;SDS011;68253;52.506;5.486;2024-02-15T00:35:12;16.48;;;3.13;;
78875;SDS011;68253;52.506;5.486;2024-02-15T00:37:40;14.10;;;2.55;;
78875;SDS011;68253;52.506;5.486;2024-02-15T00:40:07;13.93;;;2.90;;
78875;SDS011;68253;52.506;5.486;2024-02-15T00:42:34;13.20;;;3.15;;
78875;SDS011;68253;52.506;5.486;2024-02-15T00:45:00;13.63;;;2.85;;
78875;SDS011;68253;52.506;5.486;2024-02-15T00:47:27;12.80;;;2.83;;
78875;SDS011;68253;52.506;5.486;2024-02-15T00:49:54;13.23;;;2.80;;
78875;SDS011;68253;52.506;5.486;2024-02-15T00:52:20;16.55;;;3.22;;
78875;SDS011;68253;52.506;5.486;2024-02-15T00:54:46;13.20;;;2.92;;
78875;SDS011;68253;52.506;5.486;2024-02-15T00:57:12;14.73;;;3.80;;
78875;SDS011;68253;52.506;5.486;2024-02-15T00:59:38;15.10;;;3.30;;
78875;SDS011;68253;52.506;5.486;2024-02-15T01:02:05;13.05;;;3.15;;
78875;SDS011;68253;52.506;5.486;2024-02-15T01:04:31;11.13;;;3.17;;
78875;SDS011;68253;52.506;5.486;2024-02-15T01:06:57;13.27;;;2.88;;
78875;SDS011;68253;52.506;5.486;2024-02-15T01:09:23;14.95;;;3.13;;
78875;SDS011;68253;52.506;5.486;2024-02-15T01:11:49;13.45;;;3.00;;
78875;SDS011;68253;52.506;5.486;2024-02-15T01:14:15;12.05;;;2.85;;
78875;SDS011;68253;52.506;5.486;2024-02-15T01:16:41;10.57;;;2.63;;
78875;SDS011;68253;52.506;5.486;2024-02-15T01:19:09;11.40;;;2.80;;
78875;SDS011;68253;52.506;5.486;2024-02-15T01:21:35;13.55;;;2.55;;
78875;SDS011;68253;52.506;5.486;2024-02-15T01:24:02;11.27;;;2.83;;
78875;SDS011;68253;52.506;5.486;2024-02-15T01:26:32;11.50;;;2.47;;
78875;SDS011;68253;52.506;5.486;2024-02-15T01:28:58;10.98;;;3.40;;
78875;SDS011;68253;52.506;5.486;2024-02-15T01:31:24;11.30;;;2.63;;
78875;SDS011;68253;52.506;5.486;2024-02-15T01:33:50;12.30;;;2.85;;
78875;SDS011;68253;52.506;5.486;2024-02-15T01:36:17;13.57;;;3.55;;
78875;SDS011;68253;52.506;5.486;2024-02-15T01:38:43;16.13;;;3.50;;
78875;SDS011;68253;52.506;5.486;2024-02-15T01:41:10;13.95;;;3.63;;
78875;SDS011;68253;52.506;5.486;2024-02-15T01:43:37;12.48;;;3.83;;
78875;SDS011;68253;52.506;5.486;2024-02-15T01:46:09;10.25;;;3.47;;
78875;SDS011;68253;52.506;5.486;2024-02-15T01:48:37;13.95;;;4.50;;
78875;SDS011;68253;52.506;5.486;2024-02-15T01:51:06;15.20;;;4.65;;
78875;SDS011;68253;52.506;5.486;2024-02-15T01:53:33;13.50;;;4.50;;
78875;SDS011;68253;52.506;5.486;2024-02-15T01:56:00;13.40;;;4.03;;
78875;SDS011;68253;52.506;5.486;2024-02-15T01:58:26;13.50;;;4.18;;
78875;SDS011;68253;52.506;5.486;2024-02-15T02:00:54;13.07;;;4.28;;
78875;SDS011;68253;52.506;5.486;2024-02-15T02:03:22;11.25;;;3.72;;
78875;SDS011;68253;52.506;5.486;2024-02-15T02:05:48;13.45;;;3.80;;
78875;SDS011;68253;52.506;5.486;2024-02-15T02:08:14;10.60;;;3.70;;
78875;SDS011;68253;52.506;5.486;2024-02-15T02:10:41;12.07;;;3.55;;
78875;SDS011;68253;52.506;5.486;2024-02-15T02:13:08;12.38;;;4.00;;
78875;SDS011;68253;52.506;5.486;2024-02-15T02:15:35;12.10;;;3.58;;
78875;SDS011;68253;52.506;5.486;2024-02-15T02:18:03;13.65;;;4.30;;
78875;SDS011;68253;52.506;5.486;2024-02-15T02:20:34;11.48;;;3.95;;
78875;SDS011;68253;52.506;5.486;2024-02-15T02:23:07;11.73;;;3.65;;
78875;SDS011;68253;52.506;5.486;2024-02-15T02:25:42;9.38;;;3.58;;
78875;SDS011;68253;52.506;5.486;2024-02-15T02:28:09;10.68;;;3.38;;
78875;SDS011;68253;52.506;5.486;2024-02-15T02:30:35;14.18;;;4.43;;
78875;SDS011;68253;52.506;5.486;2024-02-15T02:33:02;13.20;;;4.15;;
78875;SDS011;68253;52.506;5.486;2024-02-15T02:35:32;12.80;;;4.38;;
78875;SDS011;68253;52.506;5.486;2024-02-15T02:37:58;12.13;;;3.88;;
78875;SDS011;68253;52.506;5.486;2024-02-15T02:40:24;12.55;;;4.18;;
78875;SDS011;68253;52.506;5.486;2024-02-15T02:42:54;10.60;;;3.80;;
78875;SDS011;68253;52.506;5.486;2024-02-15T02:45:27;10.82;;;3.85;;
78875;SDS011;68253;52.506;5.486;2024-02-15T02:47:53;11.43;;;4.03;;
78875;SDS011;68253;52.506;5.486;2024-02-15T02:50:23;13.65;;;5.20;;
78875;SDS011;68253;52.506;5.486;2024-02-15T02:52:49;12.07;;;4.13;;
78875;SDS011;68253;52.506;5.486;2024-02-15T02:55:16;12.20;;;4.22;;
78875;SDS011;68253;52.506;5.486;2024-02-15T02:57:43;13.52;;;4.70;;
78875;SDS011;68253;52.506;5.486;2024-02-15T03:00:09;16.60;;;5.35;;
78875;SDS011;68253;52.506;5.486;2024-02-15T03:02:43;12.73;;;4.80;;
78875;SDS011;68253;52.506;5.486;2024-02-15T03:05:10;12.75;;;4.80;;
78875;SDS011;68253;52.506;5.486;2024-02-15T03:07:37;11.95;;;4.10;;
78875;SDS011;68253;52.506;5.486;2024-02-15T03:10:06;13.90;;;5.00;;
78875;SDS011;68253;52.506;5.486;2024-02-15T03:12:37;14.10;;;5.10;;
78875;SDS011;68253;52.506;5.486;2024-02-15T03:15:04;12.50;;;4.35;;
78875;SDS011;68253;52.506;5.486;2024-02-15T03:17:54;13.23;;;4.38;;
78875;SDS011;68253;52.506;5.486;2024-02-15T03:20:20;11.73;;;4.30;;
78875;SDS011;68253;52.506;5.486;2024-02-15T03:23:04;10.82;;;4.13;;
78875;SDS011;68253;52.506;5.486;2024-02-15T03:25:31;12.68;;;3.80;;
78875;SDS011;68253;52.506;5.486;2024-02-15T03:27:57;12.70;;;4.75;;
78875;SDS011;68253;52.506;5.486;2024-02-15T03:30:25;14.70;;;4.57;;
78875;SDS011;68253;52.506;5.486;2024-02-15T03:32:52;13.77;;;4.88;;
78875;SDS011;68253;52.506;5.486;2024-02-15T03:35:24;12.88;;;4.57;;
78875;SDS011;68253;52.506;5.486;2024-02-15T03:37:52;11.48;;;4.50;;
78875;SDS011;68253;52.506;5.486;2024-02-15T03:40:18;13.60;;;5.20;;
78875;SDS011;68253;52.506;5.486;2024-02-15T03:42:45;14.40;;;5.82;;
78875;SDS011;68253;52.506;5.486;2024-02-15T03:45:12;16.52;;;5.18;;
78875;SDS011;68253;52.506;5.486;2024-02-15T03:47:38;15.30;;;5.95;;
78875;SDS011;68253;52.506;5.486;2024-02-15T03:50:05;17.58;;;7.10;;
78875;SDS011;68253;52.506;5.486;2024-02-15T03:52:34;14.93;;;5.65;;
78875;SDS011;68253;52.506;5.486;2024-02-15T03:55:00;14.57;;;5.97;;
78875;SDS011;68253;52.506;5.486;2024-02-15T03:57:27;14.88;;;5.55;;
78875;SDS011;68253;52.506;5.486;2024-02-15T03:59:54;15.40;;;6.10;;
78875;SDS011;68253;52.506;5.486;2024-02-15T04:02:25;15.10;;;5.78;;
78875;SDS011;68253;52.506;5.486;2024-02-15T04:04:52;15.38;;;6.68;;
78875;SDS011;68253;52.506;5.486;2024-02-15T04:07:20;17.50;;;7.45;;
78875;SDS011;68253;52.506;5.486;2024-02-15T04:09:47;14.15;;;6.15;;
78875;SDS011;68253;52.506;5.486;2024-02-15T04:12:14;14.85;;;6.43;;
78875;SDS011;68253;52.506;5.486;2024-02-15T04:14:40;17.80;;;8.02;;
78875;SDS011;68253;52.506;5.486;2024-02-15T04:17:07;14.90;;;6.72;;
78875;SDS011;68253;52.506;5.486;2024-02-15T04:19:33;15.25;;;6.18;;
78875;SDS011;68253;52.506;5.486;2024-02-15T04:21:59;14.57;;;6.60;;
78875;SDS011;68253;52.506;5.486;2024-02-15T04:24:26;13.07;;;5.93;;
78875;SDS011;68253;52.506;5.486;2024-02-15T04:26:52;14.25;;;5.47;;
78875;SDS011;68253;52.506;5.486;2024-02-15T04:29:19;15.60;;;6.00;;
78875;SDS011;68253;52.506;5.486;2024-02-15T04:31:46;15.30;;;5.82;;
78875;SDS011;68253;52.506;5.486;2024-02-15T04:34:15;13.95;;;5.68;;
78875;SDS011;68253;52.506;5.486;2024-02-15T04:36:43;14.05;;;5.72;;
78875;SDS011;68253;52.506;5.486;2024-02-15T04:39:15;19.50;;;6.43;;
78875;SDS011;68253;52.506;5.486;2024-02-15T04:41:50;13.35;;;5.25;;
78875;SDS011;68253;52.506;5.486;2024-02-15T04:44:17;14.93;;;5.85;;
78875;SDS011;68253;52.506;5.486;2024-02-15T04:46:46;13.43;;;5.07;;
78875;SDS011;68253;52.506;5.486;2024-02-15T04:49:13;14.23;;;5.32;;
78875;SDS011;68253;52.506;5.486;2024-02-15T04:51:39;12.20;;;5.45;;
78875;SDS011;68253;52.506;5.486;2024-02-15T04:54:07;14.05;;;4.95;;
78875;SDS011;68253;52.506;5.486;2024-02-15T04:56:33;14.30;;;5.40;;
78875;SDS011;68253;52.506;5.486;2024-02-15T04:59:01;14.57;;;5.25;;
78875;SDS011;68253;52.506;5.486;2024-02-15T05:01:28;13.25;;;4.93;;
78875;SDS011;68253;52.506;5.486;2024-02-15T05:03:58;14.35;;;5.00;;
78875;SDS011;68253;52.506;5.486;2024-02-15T05:06:24;11.82;;;4.80;;
78875;SDS011;68253;52.506;5.486;2024-02-15T05:08:55;15.63;;;5.10;;
78875;SDS011;68253;52.506;5.486;2024-02-15T05:11:21;14.73;;;5.38;;
78875;SDS011;68253;52.506;5.486;2024-02-15T05:13:48;12.82;;;4.85;;
78875;SDS011;68253;52.506;5.486;2024-02-15T05:16:16;16.48;;;5.30;;
78875;SDS011;68253;52.506;5.486;2024-02-15T05:18:43;12.98;;;4.85;;
78875;SDS011;68253;52.506;5.486;2024-02-15T05:21:14;11.05;;;4.70;;
78875;SDS011;68253;52.506;5.486;2024-02-15T05:23:41;13.40;;;5.10;;
78875;SDS011;68253;52.506;5.486;2024-02-15T05:26:08;15.32;;;4.72;;
78875;SDS011;68253;52.506;5.486;2024-02-15T05:28:34;15.05;;;4.68;;
78875;SDS011;68253;52.506;5.486;2024-02-15T05:31:13;11.05;;;4.57;;
78875;SDS011;68253;52.506;5.486;2024-02-15T05:33:46;14.55;;;5.00;;
78875;SDS011;68253;52.506;5.486;2024-02-15T05:36:13;15.40;;;5.97;;
78875;SDS011;68253;52.506;5.486;2024-02-15T05:38:40;16.88;;;6.43;;
78875;SDS011;68253;52.506;5.486;2024-02-15T05:41:06;14.65;;;5.75;;
78875;SDS011;68253;52.506;5.486;2024-02-15T05:43:37;15.68;;;5.38;;
78875;SDS011;68253;52.506;5.486;2024-02-15T05:46:04;12.23;;;5.22;;
78875;SDS011;68253;52.506;5.486;2024-02-15T05:48:32;14.02;;;5.07;;
78875;SDS011;68253;52.506;5.486;2024-02-15T05:51:01;12.60;;;5.72;;
78875;SDS011;68253;52.506;5.486;2024-02-15T05:53:29;15.25;;;5.82;;
78875;SDS011;68253;52.506;5.486;2024-02-15T05:55:55;17.67;;;6.47;;
78875;SDS011;68253;52.506;5.486;2024-02-15T05:58:23;16.08;;;6.20;;
78875;SDS011;68253;52.506;5.486;2024-02-15T06:00:50;14.65;;;6.20;;
78875;SDS011;68253;52.506;5.486;2024-02-15T06:03:17;13.95;;;6.32;;
78875;SDS011;68253;52.506;5.486;2024-02-15T06:05:43;15.18;;;7.32;;
78875;SDS011;68253;52.506;5.486;2024-02-15T06:08:10;19.20;;;7.97;;
78875;SDS011;68253;52.506;5.486;2024-02-15T06:10:39;14.23;;;6.13;;
78875;SDS011;68253;52.506;5.486;2024-02-15T06:13:06;13.63;;;5.63;;
78875;SDS011;68253;52.506;5.486;2024-02-15T06:15:35;13.68;;;5.75;;
78875;SDS011;68253;52.506;5.486;2024-02-15T06:18:02;12.55;;;5.72;;
78875;SDS011;68253;52.506;5.486;2024-02-15T06:20:34;13.85;;;5.88;;
78875;SDS011;68253;52.506;5.486;2024-02-15T06:23:01;14.27;;;5.95;;
78875;SDS011;68253;52.506;5.486;2024-02-15T06:25:34;12.70;;;4.88;;
78875;SDS011;68253;52.506;5.486;2024-02-15T06:28:01;15.10;;;5.90;;
78875;SDS011;68253;52.506;5.486;2024-02-15T06:30:28;12.93;;;6.03;;
78875;SDS011;68253;52.506;5.486;2024-02-15T06:33:13;12.35;;;5.90;;
78875;SDS011;68253;52.506;5.486;2024-02-15T06:36:05;13.35;;;5.70;;
78875;SDS011;68253;52.506;5.486;2024-02-15T06:38:50;15.02;;;6.65;;
78875;SDS011;68253;52.506;5.486;2024-02-15T06:41:35;13.57;;;6.20;;
78875;SDS011;68253;52.506;5.486;2024-02-15T06:44:01;12.73;;;5.78;;
78875;SDS011;68253;52.506;5.486;2024-02-15T06:46:27;13.68;;;6.13;;
78875;SDS011;68253;52.506;5.486;2024-02-15T06:48:53;13.65;;;6.38;;
78875;SDS011;68253;52.506;5.486;2024-02-15T06:51:20;14.27;;;6.60;;
78875;SDS011;68253;52.506;5.486;2024-02-15T06:53:46;15.32;;;7.00;;
78875;SDS011;68253;52.506;5.486;2024-02-15T06:56:12;12.73;;;6.07;;
78875;SDS011;68253;52.506;5.486;2024-02-15T06:58:39;14.90;;;6.72;;
78875;SDS011;68253;52.506;5.486;2024-02-15T07:01:06;14.10;;;6.90;;
78875;SDS011;68253;52.506;5.486;2024-02-15T07:03:33;12.77;;;5.93;;
78875;SDS011;68253;52.506;5.486;2024-02-15T07:05:59;12.50;;;6.00;;
78875;SDS011;68253;52.506;5.486;2024-02-15T07:08:25;15.95;;;6.78;;
78875;SDS011;68253;52.506;5.486;2024-02-15T07:10:51;13.57;;;6.85;;
78875;SDS011;68253;52.506;5.486;2024-02-15T07:13:18;13.65;;;5.85;;
78875;SDS011;68253;52.506;5.486;2024-02-15T07:15:44;13.63;;;6.72;;
78875;SDS011;68253;52.506;5.486;2024-02-15T07:18:12;13.70;;;6.47;;
78875;SDS011;68253;52.506;5.486;2024-02-15T07:20:42;12.75;;;6.47;;
78875;SDS011;68253;52.506;5.486;2024-02-15T07:23:08;13.35;;;6.32;;
78875;SDS011;68253;52.506;5.486;2024-02-15T07:25:34;13.48;;;6.80;;
78875;SDS011;68253;52.506;5.486;2024-02-15T07:28:01;15.63;;;6.95;;
78875;SDS011;68253;52.506;5.486;2024-02-15T07:30:28;14.13;;;7.65;;
78875;SDS011;68253;52.506;5.486;2024-02-15T07:32:54;13.20;;;7.00;;
78875;SDS011;68253;52.506;5.486;2024-02-15T07:35:21;17.60;;;8.02;;
78875;SDS011;68253;52.506;5.486;2024-02-15T07:37:50;15.30;;;6.70;;
78875;SDS011;68253;52.506;5.486;2024-02-15T07:40:18;15.45;;;7.05;;
78875;SDS011;68253;52.506;5.486;2024-02-15T07:42:50;13.23;;;5.93;;
78875;SDS011;68253;52.506;5.486;2024-02-15T07:45:17;11.75;;;5.78;;
78875;SDS011;68253;52.506;5.486;2024-02-15T07:47:43;12.00;;;6.07;;
78875;SDS011;68253;52.506;5.486;2024-02-15T07:50:10;11.80;;;5.55;;
78875;SDS011;68253;52.506;5.486;2024-02-15T07:52:42;12.88;;;6.43;;
78875;SDS011;68253;52.506;5.486;2024-02-15T07:55:08;12.98;;;6.20;;
78875;SDS011;68253;52.506;5.486;2024-02-15T07:57:34;14.23;;;7.25;;
78875;SDS011;68253;52.506;5.486;2024-02-15T08:00:00;11.00;;;5.90;;
78875;SDS011;68253;52.506;5.486;2024-02-15T08:02:26;14.50;;;6.93;;
78875;SDS011;68253;52.506;5.486;2024-02-15T08:04:54;12.13;;;5.55;;
78875;SDS011;68253;52.506;5.486;2024-02-15T08:07:20;12.18;;;5.40;;
78875;SDS011;68253;52.506;5.486;2024-02-15T08:09:47;11.15;;;5.55;;
78875;SDS011;68253;52.506;5.486;2024-02-15T08:12:16;12.40;;;5.32;;
78875;SDS011;68253;52.506;5.486;2024-02-15T08:14:44;12.65;;;5.00;;
78875;SDS011;68253;52.506;5.486;2024-02-15T08:17:10;11.50;;;4.57;;
78875;SDS011;68253;52.506;5.486;2024-02-15T08:19:39;11.27;;;4.82;;
78875;SDS011;68253;52.506;5.486;2024-02-15T08:22:07;9.65;;;4.15;;
78875;SDS011;68253;52.506;5.486;2024-02-15T08:24:33;10.45;;;4.07;;
78875;SDS011;68253;52.506;5.486;2024-02-15T08:26:59;10.23;;;3.97;;
78875;SDS011;68253;52.506;5.486;2024-02-15T08:29:25;8.55;;;3.63;;
78875;SDS011;68253;52.506;5.486;2024-02-15T08:31:51;9.23;;;3.63;;
78875;SDS011;68253;52.506;5.486;2024-02-15T08:34:17;7.90;;;2.83;;
78875;SDS011;68253;52.506;5.486;2024-02-15T08:36:45;9.07;;;3.42;;
78875;SDS011;68253;52.506;5.486;2024-02-15T08:39:13;9.32;;;3.08;;
78875;SDS011;68253;52.506;5.486;2024-02-15T08:41:42;8.25;;;2.83;;
78875;SDS011;68253;52.506;5.486;2024-02-15T08:44:08;8.25;;;3.33;;
78875;SDS011;68253;52.506;5.486;2024-02-15T08:46:37;7.38;;;2.60;;
78875;SDS011;68253;52.506;5.486;2024-02-15T08:49:03;7.63;;;2.40;;
78875;SDS011;68253;52.506;5.486;2024-02-15T08:51:29;7.25;;;2.63;;
78875;SDS011;68253;52.506;5.486;2024-02-15T08:53:56;7.50;;;2.78;;
78875;SDS011;68253;52.506;5.486;2024-02-15T08:56:22;8.10;;;2.60;;
78875;SDS011;68253;52.506;5.486;2024-02-15T08:58:48;8.35;;;3.35;;
78875;SDS011;68253;52.506;5.486;2024-02-15T09:01:15;8.20;;;2.95;;
78875;SDS011;68253;52.506;5.486;2024-02-15T09:03:41;7.63;;;3.05;;
78875;SDS011;68253;52.506;5.486;2024-02-15T09:06:08;7.20;;;2.50;;
78875;SDS011;68253;52.506;5.486;2024-02-15T09:08:34;6.75;;;2.53;;
78875;SDS011;68253;52.506;5.486;2024-02-15T09:11:01;7.35;;;2.45;;
78875;SDS011;68253;52.506;5.486;2024-02-15T09:13:27;6.93;;;2.28;;
78875;SDS011;68253;52.506;5.486;2024-02-15T09:15:53;7.80;;;2.88;;
78875;SDS011;68253;52.506;5.486;2024-02-15T09:18:20;7.60;;;2.72;;
78875;SDS011;68253;52.506;5.486;2024-02-15T09:20:49;5.68;;;1.95;;
78875;SDS011;68253;52.506;5.486;2024-02-15T09:23:21;6.80;;;2.42;;
78875;SDS011;68253;52.506;5.486;2024-02-15T09:25:49;6.68;;;2.30;;
78875;SDS011;68253;52.506;5.486;2024-02-15T09:28:17;7.10;;;2.33;;
78875;SDS011;68253;52.506;5.486;2024-02-15T09:30:48;5.75;;;2.13;;
78875;SDS011;68253;52.506;5.486;2024-02-15T09:33:18;6.00;;;2.13;;
78875;SDS011;68253;52.506;5.486;2024-02-15T09:35:47;5.38;;;1.85;;
78875;SDS011;68253;52.506;5.486;2024-02-15T09:38:13;6.18;;;1.73;;
78875;SDS011;68253;52.506;5.486;2024-02-15T09:40:42;5.22;;;1.73;;
78875;SDS011;68253;52.506;5.486;2024-02-15T09:43:09;4.10;;;1.60;;
78875;SDS011;68253;52.506;5.486;2024-02-15T09:45:38;4.20;;;1.55;;
78875;SDS011;68253;52.506;5.486;2024-02-15T09:48:05;4.22;;;1.40;;
78875;SDS011;68253;52.506;5.486;2024-02-15T09:50:34;5.25;;;1.30;;
78875;SDS011;68253;52.506;5.486;2024-02-15T09:53:01;4.80;;;1.50;;
78875;SDS011;68253;52.506;5.486;2024-02-15T09:55:28;4.97;;;1.52;;
78875;SDS011;68253;52.506;5.486;2024-02-15T09:57:54;3.72;;;1.13;;
78875;SDS011;68253;52.506;5.486;2024-02-15T10:00:21;3.88;;;1.50;;
78875;SDS011;68253;52.506;5.486;2024-02-15T10:02:47;5.00;;;1.50;;
78875;SDS011;68253;52.506;5.486;2024-02-15T10:05:16;4.88;;;1.63;;
78875;SDS011;68253;52.506;5.486;2024-02-15T10:07:43;5.15;;;1.70;;
78875;SDS011;68253;52.506;5.486;2024-02-15T10:10:17;4.95;;;1.58;;
78875;SDS011;68253;52.506;5.486;2024-02-15T10:12:48;7.40;;;2.95;;
78875;SDS011;68253;52.506;5.486;2024-02-15T10:18:13;7.68;;;2.28;;
78875;SDS011;68253;52.506;5.486;2024-02-15T10:20:40;8.20;;;2.40;;
78875;SDS011;68253;52.506;5.486;2024-02-15T10:23:10;7.68;;;2.80;;
78875;SDS011;68253;52.506;5.486;2024-02-15T10:25:38;8.68;;;3.13;;
78875;SDS011;68253;52.506;5.486;2024-02-15T10:28:05;8.70;;;3.30;;
78875;SDS011;68253;52.506;5.486;2024-02-15T10:30:39;10.23;;;3.00;;
78875;SDS011;68253;52.506;5.486;2024-02-15T10:33:09;9.48;;;3.03;;
78875;SDS011;68253;52.506;5.486;2024-02-15T10:35:35;9.52;;;3.80;;
78875;SDS011;68253;52.506;5.486;2024-02-15T10:40:33;8.90;;;3.25;;
78875;SDS011;68253;52.506;5.486;2024-02-15T10:43:00;9.23;;;3.08;;
78875;SDS011;68253;52.506;5.486;2024-02-15T10:45:30;9.85;;;3.15;;
78875;SDS011;68253;52.506;5.486;2024-02-15T10:47:56;9.45;;;3.13;;
78875;SDS011;68253;52.506;5.486;2024-02-15T10:50:26;9.10;;;3.58;;
78875;SDS011;68253;52.506;5.486;2024-02-15T10:52:56;9.73;;;3.78;;
78875;SDS011;68253;52.506;5.486;2024-02-15T10:58:07;9.93;;;3.35;;
78875;SDS011;68253;52.506;5.486;2024-02-15T11:00:33;10.18;;;3.47;;
78875;SDS011;68253;52.506;5.486;2024-02-15T11:05:36;10.63;;;3.28;;
78875;SDS011;68253;52.506;5.486;2024-02-15T11:08:04;9.68;;;3.20;;
78875;SDS011;68253;52.506;5.486;2024-02-15T11:10:32;10.93;;;3.85;;
78875;SDS011;68253;52.506;5.486;2024-02-15T11:13:00;8.82;;;3.60;;
78875;SDS011;68253;52.506;5.486;2024-02-15T11:18:02;9.93;;;4.13;;
78875;SDS011;68253;52.506;5.486;2024-02-15T11:23:00;11.80;;;4.10;;
78875;SDS011;68253;52.506;5.486;2024-02-15T11:25:36;10.43;;;3.42;;
78875;SDS011;68253;52.506;5.486;2024-02-15T11:30:49;10.38;;;3.85;;
78875;SDS011;68253;52.506;5.486;2024-02-15T11:33:34;10.07;;;3.75;;
78875;SDS011;68253;52.506;5.486;2024-02-15T11:36:05;11.43;;;3.88;;
78875;SDS011;68253;52.506;5.486;2024-02-15T11:38:31;12.98;;;4.25;;
78875;SDS011;68253;52.506;5.486;2024-02-15T11:43:45;11.05;;;4.00;;
78875;SDS011;68253;52.506;5.486;2024-02-15T11:46:26;9.32;;;3.85;;
78875;SDS011;68253;52.506;5.486;2024-02-15T11:48:57;10.50;;;3.97;;
78875;SDS011;68253;52.506;5.486;2024-02-15T11:54:25;9.73;;;3.92;;
78875;SDS011;68253;52.506;5.486;2024-02-15T11:56:50;11.50;;;4.18;;
78875;SDS011;68253;52.506;5.486;2024-02-15T11:59:20;10.57;;;3.80;;
78875;SDS011;68253;52.506;5.486;2024-02-15T12:01:58;12.45;;;3.92;;
78875;SDS011;68253;52.506;5.486;2024-02-15T12:04:43;11.25;;;3.70;;
78875;SDS011;68253;52.506;5.486;2024-02-15T12:07:28;11.18;;;3.80;;
78875;SDS011;68253;52.506;5.486;2024-02-15T12:10:17;10.30;;;3.70;;
78875;SDS011;68253;52.506;5.486;2024-02-15T12:13:02;10.60;;;3.55;;
78875;SDS011;68253;52.506;5.486;2024-02-15T12:15:59;12.32;;;3.90;;
78875;SDS011;68253;52.506;5.486;2024-02-15T12:18:45;11.27;;;3.95;;
78875;SDS011;68253;52.506;5.486;2024-02-15T12:21:20;11.40;;;4.70;;
78875;SDS011;68253;52.506;5.486;2024-02-15T12:23:50;12.07;;;4.20;;
78875;SDS011;68253;52.506;5.486;2024-02-15T12:26:18;13.63;;;5.03;;
78875;SDS011;68253;52.506;5.486;2024-02-15T12:28:51;11.93;;;4.32;;
78875;SDS011;68253;52.506;5.486;2024-02-15T12:31:20;16.17;;;4.88;;
78875;SDS011;68253;52.506;5.486;2024-02-15T12:33:46;14.52;;;4.78;;
78875;SDS011;68253;52.506;5.486;2024-02-15T12:36:24;12.77;;;4.28;;
78875;SDS011;68253;52.506;5.486;2024-02-15T12:39:00;12.85;;;4.80;;
78875;SDS011;68253;52.506;5.486;2024-02-15T12:41:27;12.93;;;4.47;;
78875;SDS011;68253;52.506;5.486;2024-02-15T12:43:54;13.52;;;4.43;;
78875;SDS011;68253;52.506;5.486;2024-02-15T12:46:22;15.93;;;6.00;;
78875;SDS011;68253;52.506;5.486;2024-02-15T12:48:48;13.30;;;5.00;;
78875;SDS011;68253;52.506;5.486;2024-02-15T12:51:15;12.90;;;4.68;;
78875;SDS011;68253;52.506;5.486;2024-02-15T12:53:42;12.93;;;5.22;;
78875;SDS011;68253;52.506;5.486;2024-02-15T12:56:08;13.45;;;5.30;;
78875;SDS011;68253;52.506;5.486;2024-02-15T12:58:35;12.88;;;4.82;;
78875;SDS011;68253;52.506;5.486;2024-02-15T13:01:01;13.88;;;4.72;;
78875;SDS011;68253;52.506;5.486;2024-02-15T13:03:27;12.15;;;4.22;;
78875;SDS011;68253;52.506;5.486;2024-02-15T13:05:54;13.32;;;4.68;;
78875;SDS011;68253;52.506;5.486;2024-02-15T13:08:20;11.30;;;4.35;;
78875;SDS011;68253;52.506;5.486;2024-02-15T13:10:46;12.13;;;4.65;;
78875;SDS011;68253;52.506;5.486;2024-02-15T13:13:12;13.95;;;4.80;;
78875;SDS011;68253;52.506;5.486;2024-02-15T13:15:42;13.20;;;5.00;;
78875;SDS011;68253;52.506;5.486;2024-02-15T13:18:09;14.63;;;5.30;;
78875;SDS011;68253;52.506;5.486;2024-02-15T13:20:39;15.40;;;5.95;;
78875;SDS011;68253;52.506;5.486;2024-02-15T13:23:06;14.40;;;6.55;;
78875;SDS011;68253;52.506;5.486;2024-02-15T13:25:34;13.68;;;4.68;;
78875;SDS011;68253;52.506;5.486;2024-02-15T13:28:08;12.73;;;4.82;;
78875;SDS011;68253;52.506;5.486;2024-02-15T13:30:38;11.93;;;5.22;;
78875;SDS011;68253;52.506;5.486;2024-02-15T13:33:05;10.20;;;4.30;;
78875;SDS011;68253;52.506;5.486;2024-02-15T13:35:31;13.43;;;4.47;;
78875;SDS011;68253;52.506;5.486;2024-02-15T13:37:58;11.38;;;4.70;;
78875;SDS011;68253;52.506;5.486;2024-02-15T13:40:24;12.93;;;4.90;;
78875;SDS011;68253;52.506;5.486;2024-02-15T13:42:56;10.52;;;4.00;;
78875;SDS011;68253;52.506;5.486;2024-02-15T13:45:29;11.23;;;4.25;;
78875;SDS011;68253;52.506;5.486;2024-02-15T13:48:01;11.73;;;4.72;;
78875;SDS011;68253;52.506;5.486;2024-02-15T13:50:30;11.73;;;4.50;;
78875;SDS011;68253;52.506;5.486;2024-02-15T13:52:57;11.90;;;4.30;;
78875;SDS011;68253;52.506;5.486;2024-02-15T13:55:26;10.38;;;4.38;;
78875;SDS011;68253;52.506;5.486;2024-02-15T13:57:52;14.43;;;4.93;;
78875;SDS011;68253;52.506;5.486;2024-02-15T14:00:21;10.77;;;4.18;;
78875;SDS011;68253;52.506;5.486;2024-02-15T14:02:57;11.27;;;4.65;;
78875;SDS011;68253;52.506;5.486;2024-02-15T14:05:24;11.70;;;4.50;;
78875;SDS011;68253;52.506;5.486;2024-02-15T14:08:00;13.35;;;5.00;;
78875;SDS011;68253;52.506;5.486;2024-02-15T14:10:29;11.00;;;4.25;;
78875;SDS011;68253;52.506;5.486;2024-02-15T14:12:56;11.32;;;3.90;;
78875;SDS011;68253;52.506;5.486;2024-02-15T14:15:27;11.32;;;3.60;;
78875;SDS011;68253;52.506;5.486;2024-02-15T14:17:59;11.60;;;4.10;;
78875;SDS011;68253;52.506;5.486;2024-02-15T14:20:26;8.77;;;3.20;;
78875;SDS011;68253;52.506;5.486;2024-02-15T14:22:53;10.32;;;3.85;;
78875;SDS011;68253;52.506;5.486;2024-02-15T14:25:21;9.27;;;3.05;;
78875;SDS011;68253;52.506;5.486;2024-02-15T14:27:48;10.40;;;3.85;;
78875;SDS011;68253;52.506;5.486;2024-02-15T14:30:14;10.38;;;3.70;;
78875;SDS011;68253;52.506;5.486;2024-02-15T14:32:59;9.90;;;2.85;;
78875;SDS011;68253;52.506;5.486;2024-02-15T14:35:35;10.73;;;3.10;;
78875;SDS011;68253;52.506;5.486;2024-02-15T14:38:08;7.60;;;2.63;;
78875;SDS011;68253;52.506;5.486;2024-02-15T14:40:36;9.55;;;3.10;;
78875;SDS011;68253;52.506;5.486;2024-02-15T14:43:05;9.55;;;2.85;;
78875;SDS011;68253;52.506;5.486;2024-02-15T14:45:32;9.60;;;2.47;;
78875;SDS011;68253;52.506;5.486;2024-02-15T14:47:59;11.15;;;3.08;;
78875;SDS011;68253;52.506;5.486;2024-02-15T14:50:25;11.10;;;3.55;;
78875;SDS011;68253;52.506;5.486;2024-02-15T14:52:52;10.15;;;2.78;;
78875;SDS011;68253;52.506;5.486;2024-02-15T14:55:19;10.18;;;2.92;;
78875;SDS011;68253;52.506;5.486;2024-02-15T14:57:46;10.18;;;2.75;;
78875;SDS011;68253;52.506;5.486;2024-02-15T15:00:12;7.45;;;2.30;;
78875;SDS011;68253;52.506;5.486;2024-02-15T15:02:39;9.15;;;2.45;;
78875;SDS011;68253;52.506;5.486;2024-02-15T15:05:09;7.68;;;2.53;;
78875;SDS011;68253;52.506;5.486;2024-02-15T15:07:53;10.45;;;3.00;;
78875;SDS011;68253;52.506;5.486;2024-02-15T15:10:38;9.50;;;2.53;;